createdAt,value
2023-03-18T00:02:24.275Z,12.17
2023-03-18T00:05:15.250Z,16.43
2023-03-18T00:08:06.126Z,14.33
2023-03-18T00:10:55.464Z,13.77
2023-03-18T00:13:45.322Z,12.43
2023-03-18T00:16:35.080Z,12.30
2023-03-18T00:19:25.250Z,12.87
2023-03-18T00:22:16.035Z,12.20
2023-03-18T00:25:09.147Z,12.73
2023-03-18T00:27:58.403Z,12.27
2023-03-18T00:30:47.724Z,13.00
2023-03-18T00:33:38.369Z,12.00
2023-03-18T00:36:28.754Z,13.00
2023-03-18T00:39:26.133Z,12.50
2023-03-18T00:42:15.792Z,14.20
2023-03-18T00:45:07.518Z,13.80
2023-03-18T00:47:56.998Z,12.20
2023-03-18T00:50:46.865Z,13.17
2023-03-18T00:53:37.023Z,12.87
2023-03-18T00:56:30.874Z,12.77
2023-03-18T00:59:20.812Z,16.40
2023-03-18T01:02:10.291Z,12.37
2023-03-18T01:04:59.610Z,12.60
2023-03-18T01:07:49.494Z,13.80
2023-03-18T01:10:38.913Z,12.67
2023-03-18T01:13:29.854Z,12.77
2023-03-18T01:16:20.949Z,13.27
2023-03-18T01:19:10.715Z,12.83
2023-03-18T01:22:00.250Z,13.00
2023-03-18T01:24:49.892Z,12.30
2023-03-18T01:27:42.034Z,11.90
2023-03-18T01:30:34.852Z,12.03
2023-03-18T01:33:27.698Z,11.97
2023-03-18T01:36:17.618Z,12.10
2023-03-18T01:39:17.520Z,12.77
2023-03-18T01:42:07.139Z,12.50
2023-03-18T01:45:18.108Z,12.07
2023-03-18T01:48:16.277Z,12.50
2023-03-18T01:51:10.127Z,12.70
2023-03-18T01:54:03.256Z,11.93
2023-03-18T01:56:53.870Z,11.83
2023-03-18T01:59:44.640Z,12.37
2023-03-18T02:02:34.969Z,15.27
2023-03-18T02:05:28.662Z,13.10
2023-03-18T02:08:19.076Z,16.00
2023-03-18T02:11:08.977Z,13.10
2023-03-18T02:13:58.419Z,13.03
2023-03-18T02:16:57.207Z,11.90
2023-03-18T02:20:09.312Z,12.70
2023-03-18T02:23:10.744Z,15.63
2023-03-18T02:26:09.431Z,12.53
2023-03-18T02:29:04.790Z,13.57
2023-03-18T02:32:05.300Z,13.27
2023-03-18T02:34:55.153Z,12.47
2023-03-18T02:37:45.067Z,12.30
2023-03-18T02:40:40.720Z,12.50
2023-03-18T02:43:41.629Z,12.30
2023-03-18T02:46:42.126Z,12.23
2023-03-18T02:49:32.900Z,11.90
2023-03-18T02:52:23.159Z,12.00
2023-03-18T02:55:12.840Z,12.83
2023-03-18T02:58:02.169Z,12.00
2023-03-18T03:00:51.884Z,12.77
2023-03-18T03:03:44.003Z,13.67
2023-03-18T03:06:35.982Z,12.77
2023-03-18T03:09:26.126Z,12.60
2023-03-18T03:12:15.833Z,12.47
2023-03-18T03:15:13.260Z,12.67
2023-03-18T03:18:08.747Z,12.80
2023-03-18T03:21:00.724Z,14.30
2023-03-18T03:23:51.540Z,12.40
2023-03-18T03:26:40.899Z,13.07
2023-03-18T03:29:30.416Z,11.97
2023-03-18T03:32:19.703Z,12.40
2023-03-18T03:35:14.036Z,12.10
2023-03-18T03:38:04.699Z,13.77
2023-03-18T03:40:54.758Z,12.90
2023-03-18T03:43:44.783Z,12.67
2023-03-18T03:46:34.166Z,12.83
2023-03-18T03:49:23.572Z,12.67
2023-03-18T03:52:13.121Z,13.97
2023-03-18T03:55:07.195Z,12.70
2023-03-18T03:57:58.106Z,12.30
2023-03-18T04:00:49.017Z,12.50
2023-03-18T04:03:38.322Z,12.20
2023-03-18T04:06:29.993Z,12.93
2023-03-18T04:09:23.908Z,13.93
2023-03-18T04:12:18.256Z,12.57
2023-03-18T04:15:12.700Z,12.93
2023-03-18T04:18:06.781Z,12.40
2023-03-18T04:20:56.548Z,12.30
2023-03-18T04:24:12.659Z,12.13
2023-03-18T04:27:02.242Z,12.90
2023-03-18T04:29:53.145Z,12.47
2023-03-18T04:32:43.503Z,12.53
2023-03-18T04:35:34.105Z,14.07
2023-03-18T04:38:23.571Z,13.87
2023-03-18T04:41:14.390Z,12.47
2023-03-18T04:44:03.826Z,12.20
2023-03-18T04:47:03.119Z,12.10
2023-03-18T04:49:52.546Z,11.73
2023-03-18T04:52:43.702Z,13.43
2023-03-18T04:55:35.477Z,16.93
2023-03-18T04:58:27.856Z,12.03
2023-03-18T05:01:30.773Z,13.47
2023-03-18T05:04:22.134Z,12.20
2023-03-18T05:07:16.900Z,12.50
2023-03-18T05:10:16.214Z,12.13
2023-03-18T05:13:06.305Z,12.60
2023-03-18T05:15:57.456Z,12.77
2023-03-18T05:18:46.978Z,12.80
2023-03-18T05:21:37.817Z,12.17
2023-03-18T05:24:28.666Z,11.90
2023-03-18T05:27:20.179Z,11.90
2023-03-18T05:30:19.292Z,11.93
2023-03-18T05:33:12.889Z,12.13
2023-03-18T05:36:11.650Z,11.97
2023-03-18T05:39:12.797Z,11.83
2023-03-18T05:42:04.620Z,12.17
2023-03-18T05:44:54.360Z,12.17
2023-03-18T05:47:45.627Z,12.50
2023-03-18T05:50:38.974Z,11.87
2023-03-18T05:53:32.073Z,11.20
2023-03-18T05:56:32.817Z,12.00
2023-03-18T05:59:25.236Z,11.70
2023-03-18T06:02:19.301Z,11.63
2023-03-18T06:05:10.646Z,12.17
2023-03-18T06:08:01.649Z,13.00
2023-03-18T06:10:51.584Z,12.40
2023-03-18T06:13:43.403Z,12.53
2023-03-18T06:16:34.036Z,12.07
2023-03-18T06:19:25.248Z,12.27
2023-03-18T06:22:15.278Z,12.20
2023-03-18T06:25:08.049Z,13.63
2023-03-18T06:28:01.572Z,13.10
2023-03-18T06:30:57.469Z,12.70
2023-03-18T06:33:47.363Z,12.80
2023-03-18T06:36:38.608Z,16.07
2023-03-18T06:39:33.210Z,12.63
2023-03-18T06:42:25.792Z,12.13
2023-03-18T06:45:22.987Z,12.27
2023-03-18T06:48:19.860Z,12.87
2023-03-18T06:51:11.291Z,14.10
2023-03-18T06:54:03.175Z,12.90
2023-03-18T06:56:54.420Z,12.47
2023-03-18T06:59:45.571Z,14.10
2023-03-18T07:02:39.401Z,12.70
2023-03-18T07:05:33.118Z,12.07
2023-03-18T07:08:22.856Z,12.10
2023-03-18T07:11:12.348Z,12.50
2023-03-18T07:14:04.334Z,13.17
2023-03-18T07:16:56.850Z,14.33
2023-03-18T07:19:46.992Z,12.00
2023-03-18T07:22:37.912Z,11.90
2023-03-18T07:25:29.775Z,13.37
2023-03-18T07:28:19.434Z,12.63
2023-03-18T07:31:08.971Z,11.90
2023-03-18T07:34:00.575Z,12.20
2023-03-18T07:36:50.579Z,11.90
2023-03-18T07:39:43.459Z,12.80
2023-03-18T07:42:32.891Z,12.37
2023-03-18T07:45:22.188Z,11.53
2023-03-18T07:48:11.828Z,12.77
2023-03-18T07:51:01.291Z,11.93
2023-03-18T07:53:51.792Z,12.37
2023-03-18T07:56:42.892Z,13.13
2023-03-18T07:59:32.364Z,12.43
2023-03-18T08:02:21.815Z,12.53
2023-03-18T08:05:13.590Z,13.43
2023-03-18T08:08:04.497Z,13.37
2023-03-18T08:10:59.855Z,13.57
2023-03-18T08:13:50.568Z,14.40
2023-03-18T08:16:39.973Z,13.90
2023-03-18T08:19:29.516Z,12.33
2023-03-18T08:22:19.352Z,13.63
2023-03-18T08:25:11.606Z,11.87
2023-03-18T08:28:01.067Z,11.43
2023-03-18T08:30:56.838Z,11.57
2023-03-18T08:33:46.500Z,11.30
2023-03-18T08:36:36.058Z,10.93
2023-03-18T08:39:25.440Z,11.50
2023-03-18T08:42:14.963Z,11.33
2023-03-18T08:45:04.809Z,10.80
2023-03-18T08:47:56.083Z,11.17
2023-03-18T08:50:45.400Z,11.50
2023-03-18T08:53:34.811Z,10.20
2023-03-18T08:56:24.146Z,10.00
2023-03-18T08:59:13.711Z,9.90
2023-03-18T09:02:03.494Z,9.73
2023-03-18T09:04:55.851Z,10.00
2023-03-18T09:07:46.461Z,9.90
2023-03-18T09:10:35.969Z,9.70
2023-03-18T09:13:25.843Z,9.80
2023-03-18T09:16:15.526Z,9.50
2023-03-18T09:19:04.865Z,9.97
2023-03-18T09:21:56.133Z,9.70
2023-03-18T09:24:45.533Z,9.63
2023-03-18T09:27:35.034Z,10.07
2023-03-18T09:30:25.642Z,9.70
2023-03-18T09:33:16.127Z,9.93
2023-03-18T09:36:06.385Z,9.80
2023-03-18T09:38:57.295Z,10.10
2023-03-18T09:42:07.250Z,13.23
2023-03-18T09:45:01.292Z,9.60
2023-03-18T09:48:11.392Z,10.77
2023-03-18T09:51:09.010Z,11.20
2023-03-18T09:54:04.248Z,11.60
2023-03-18T09:56:54.993Z,10.43
2023-03-18T09:59:49.074Z,10.73
2023-03-18T10:02:42.620Z,10.13
2023-03-18T10:05:36.041Z,9.60
2023-03-18T10:08:39.878Z,9.87
2023-03-18T10:11:33.951Z,10.10
2023-03-18T10:14:38.432Z,10.77
2023-03-18T10:17:32.767Z,10.10
2023-03-18T10:20:33.400Z,10.40
2023-03-18T10:23:36.411Z,9.80
2023-03-18T10:26:33.391Z,9.80
2023-03-18T10:29:42.554Z,9.80
2023-03-18T10:32:49.837Z,9.73
2023-03-18T10:35:46.930Z,9.93
2023-03-18T10:38:39.709Z,10.00
2023-03-18T10:41:36.235Z,10.00
2023-03-18T10:44:29.505Z,9.93
2023-03-18T10:47:24.008Z,9.90
2023-03-18T10:50:20.037Z,10.20
2023-03-18T10:53:21.515Z,10.40
2023-03-18T10:56:13.040Z,10.00
2023-03-18T10:59:11.686Z,9.63
2023-03-18T11:02:06.311Z,10.33
2023-03-18T11:05:01.516Z,9.77
2023-03-18T11:07:59.981Z,9.87
2023-03-18T11:10:49.513Z,9.93
2023-03-18T11:13:38.819Z,10.03
2023-03-18T11:16:38.281Z,10.03
2023-03-18T11:19:33.528Z,9.90
2023-03-18T11:22:25.362Z,9.60
2023-03-18T11:25:18.253Z,9.97
2023-03-18T11:28:20.908Z,10.10
2023-03-18T11:31:19.034Z,10.50
2023-03-18T11:34:11.595Z,9.67
2023-03-18T11:37:04.716Z,9.93
2023-03-18T11:39:58.998Z,9.70
2023-03-18T11:42:50.851Z,9.60
2023-03-18T11:45:48.807Z,10.80
2023-03-18T11:48:41.331Z,9.80
2023-03-18T11:51:45.830Z,9.70
2023-03-18T11:55:01.607Z,10.03
2023-03-18T11:58:41.217Z,9.70
2023-03-18T12:01:38.854Z,9.70
2023-03-18T12:05:09.490Z,11.27
2023-03-18T12:08:13.460Z,9.70
2023-03-18T12:11:14.743Z,9.80
2023-03-18T12:14:11.071Z,9.53
2023-03-18T12:17:17.670Z,9.80
2023-03-18T12:20:40.273Z,9.83
2023-03-18T12:24:01.551Z,9.60
2023-03-18T12:26:59.743Z,10.13
2023-03-18T12:30:27.719Z,9.80
2023-03-18T12:33:34.171Z,9.70
2023-03-18T12:36:39.855Z,9.83
2023-03-18T12:40:26.922Z,9.73
2023-03-18T12:43:51.609Z,9.73
2023-03-18T12:46:47.945Z,10.27
2023-03-18T12:49:40.571Z,9.77
2023-03-18T12:52:38.076Z,9.60
2023-03-18T12:55:33.175Z,9.77
2023-03-18T12:58:27.152Z,9.67
2023-03-18T13:01:20.576Z,9.60
2023-03-18T13:04:16.138Z,10.07
2023-03-18T13:07:16.007Z,10.00
2023-03-18T13:10:20.036Z,9.70
2023-03-18T13:13:13.725Z,9.60
2023-03-18T13:16:05.989Z,9.80
2023-03-18T13:18:59.129Z,9.40
2023-03-18T13:21:53.720Z,9.90
2023-03-18T13:25:05.985Z,9.70
2023-03-18T13:28:34.121Z,9.20
2023-03-18T13:31:38.220Z,9.60
2023-03-18T13:35:13.245Z,9.10
2023-03-18T13:38:30.319Z,9.10
2023-03-18T13:41:52.627Z,9.87
2023-03-18T13:44:46.224Z,9.60
2023-03-18T13:47:40.612Z,9.17
2023-03-18T13:50:37.396Z,9.30
2023-03-18T13:53:31.084Z,9.90
2023-03-18T13:56:34.392Z,10.10
2023-03-18T13:59:48.544Z,10.40
2023-03-18T14:02:48.012Z,10.90
2023-03-18T14:05:42.531Z,10.60
2023-03-18T14:08:46.259Z,10.93
2023-03-18T14:11:53.255Z,11.33
2023-03-18T14:15:02.788Z,11.00
2023-03-18T14:17:59.351Z,11.53
2023-03-18T14:20:54.825Z,11.23
2023-03-18T14:23:45.809Z,11.20
2023-03-18T14:26:36.168Z,12.10
2023-03-18T14:29:30.924Z,11.00
2023-03-18T14:32:40.233Z,10.80
2023-03-18T14:35:35.773Z,11.40
2023-03-18T14:38:29.370Z,11.10
2023-03-18T14:41:24.433Z,12.40
2023-03-18T14:44:23.971Z,11.20
2023-03-18T14:47:37.528Z,11.90
2023-03-18T14:50:42.120Z,11.00
2023-03-18T14:53:35.686Z,10.67
2023-03-18T14:56:30.548Z,11.43
2023-03-18T14:59:19.842Z,11.60
2023-03-18T15:02:24.581Z,11.43
2023-03-18T15:05:18.779Z,11.57
2023-03-18T15:08:15.194Z,12.20
2023-03-18T15:11:07.533Z,11.40
2023-03-18T15:14:00.118Z,11.23
2023-03-18T15:16:54.689Z,11.40
2023-03-18T15:19:44.358Z,11.40
2023-03-18T15:22:35.611Z,11.77
2023-03-18T15:25:26.558Z,11.57
2023-03-18T15:28:21.550Z,12.97
2023-03-18T15:31:13.949Z,14.00
2023-03-18T15:34:12.589Z,12.10
2023-03-18T15:37:04.790Z,12.20
2023-03-18T15:39:56.720Z,12.33
2023-03-18T15:42:47.833Z,13.17
2023-03-18T15:45:42.139Z,13.50
2023-03-18T15:48:37.684Z,13.47
2023-03-18T15:51:32.148Z,13.90
2023-03-18T15:54:28.513Z,15.70
2023-03-18T15:57:29.859Z,13.20
2023-03-18T16:00:22.238Z,14.33
2023-03-18T16:03:21.921Z,14.43
2023-03-18T16:06:11.952Z,14.50
2023-03-18T16:09:01.371Z,14.53
2023-03-18T16:11:54.788Z,14.70
2023-03-18T16:14:45.594Z,17.43
2023-03-18T16:17:37.081Z,15.80
2023-03-18T16:20:29.592Z,15.20
2023-03-18T16:23:19.709Z,21.17
2023-03-18T16:26:16.138Z,15.13
2023-03-18T16:29:17.599Z,15.67
2023-03-18T16:32:08.359Z,14.17
2023-03-18T16:34:59.339Z,21.77
2023-03-18T16:37:50.355Z,14.97
2023-03-18T16:40:39.730Z,15.10
2023-03-18T16:43:31.736Z,15.50
2023-03-18T16:46:21.136Z,15.67
2023-03-18T16:49:16.266Z,14.73
2023-03-18T16:52:07.574Z,14.30
2023-03-18T16:54:58.028Z,16.00
2023-03-18T16:57:52.500Z,14.93
2023-03-18T17:00:46.795Z,15.07
2023-03-18T17:03:37.096Z,16.50
2023-03-18T17:06:26.476Z,15.03
2023-03-18T17:09:17.409Z,15.10
2023-03-18T17:12:08.386Z,14.70
2023-03-18T17:14:59.387Z,18.20
2023-03-18T17:17:49.895Z,14.50
2023-03-18T17:20:39.186Z,15.23
2023-03-18T17:23:29.472Z,17.87
2023-03-18T17:26:20.206Z,16.57
2023-03-18T17:29:12.266Z,16.67
2023-03-18T17:32:01.697Z,19.27
2023-03-18T17:34:53.288Z,16.40
2023-03-18T17:37:42.944Z,17.00
2023-03-18T17:40:32.504Z,16.20
2023-03-18T17:43:29.536Z,16.33
2023-03-18T17:46:18.940Z,17.47
2023-03-18T17:49:12.454Z,15.87
2023-03-18T17:52:01.837Z,20.80
2023-03-18T17:54:51.855Z,16.10
2023-03-18T17:57:42.182Z,17.00
2023-03-18T18:00:33.889Z,17.73
2023-03-18T18:03:28.776Z,23.17
2023-03-18T18:06:22.061Z,16.10
2023-03-18T18:09:14.172Z,15.77
2023-03-18T18:12:05.284Z,17.10
2023-03-18T18:14:54.734Z,18.77
2023-03-18T18:17:46.247Z,16.50
2023-03-18T18:20:36.580Z,16.73
2023-03-18T18:23:31.715Z,21.23
2023-03-18T18:26:22.869Z,25.33
2023-03-18T18:29:16.743Z,17.27
2023-03-18T18:32:06.741Z,21.33
2023-03-18T18:34:57.362Z,16.87
2023-03-18T18:37:48.632Z,19.23
2023-03-18T18:40:37.979Z,20.00
2023-03-18T18:43:27.954Z,16.30
2023-03-18T18:46:18.142Z,16.57
2023-03-18T18:49:07.503Z,16.07
2023-03-18T18:52:00.254Z,18.87
2023-03-18T18:54:49.751Z,15.53
2023-03-18T18:57:42.883Z,16.03
2023-03-18T19:00:33.347Z,15.70
2023-03-18T19:03:25.770Z,15.73
2023-03-18T19:06:27.284Z,15.03
2023-03-18T19:09:20.464Z,15.90
2023-03-18T19:12:16.856Z,18.80
2023-03-18T19:15:07.359Z,16.33
2023-03-18T19:17:56.743Z,17.53
2023-03-18T19:20:46.335Z,22.10
2023-03-18T19:23:37.133Z,16.90
2023-03-18T19:26:27.825Z,18.03
2023-03-18T19:29:17.185Z,20.57
2023-03-18T19:32:08.213Z,17.63
2023-03-18T19:34:57.524Z,17.93
2023-03-18T19:37:48.521Z,16.80
2023-03-18T19:40:38.166Z,16.60
2023-03-18T19:43:30.266Z,16.60
2023-03-18T19:46:24.213Z,18.93
2023-03-18T19:49:19.985Z,16.03
2023-03-18T19:52:19.056Z,16.80
2023-03-18T19:55:10.809Z,17.97
2023-03-18T19:58:00.252Z,17.20
2023-03-18T20:00:51.601Z,17.30
2023-03-18T20:03:40.912Z,16.60
2023-03-18T20:06:30.149Z,17.10
2023-03-18T20:09:19.602Z,18.27
2023-03-18T20:12:21.386Z,15.73
2023-03-18T20:15:16.683Z,18.70
2023-03-18T20:18:17.286Z,18.13
2023-03-18T20:21:08.095Z,17.97
2023-03-18T20:24:04.317Z,18.77
2023-03-18T20:26:53.561Z,17.17
2023-03-18T20:29:48.983Z,18.87
2023-03-18T20:32:38.330Z,18.37
2023-03-18T20:35:32.545Z,18.87
2023-03-18T20:38:29.668Z,16.33
2023-03-18T20:41:21.822Z,19.93
2023-03-18T20:44:12.440Z,18.93
2023-03-18T20:47:01.717Z,17.37
2023-03-18T20:49:51.037Z,18.37
2023-03-18T20:52:44.083Z,16.60
2023-03-18T20:55:36.112Z,15.90
2023-03-18T20:58:27.643Z,15.40
2023-03-18T21:01:17.537Z,16.90
2023-03-18T21:04:07.535Z,15.80
2023-03-18T21:06:57.420Z,18.20
2023-03-18T21:09:48.127Z,17.97
2023-03-18T21:12:37.910Z,16.80
2023-03-18T21:15:29.209Z,20.10
2023-03-18T21:18:18.589Z,19.10
2023-03-18T21:21:08.257Z,17.03
2023-03-18T21:23:57.673Z,19.70
2023-03-18T21:27:01.609Z,16.67
2023-03-18T21:29:55.548Z,18.93
2023-03-18T21:32:46.300Z,20.30
2023-03-18T21:35:36.568Z,17.23
2023-03-18T21:38:27.105Z,17.50
2023-03-18T21:41:22.221Z,17.90
2023-03-18T21:44:13.617Z,20.00
2023-03-18T21:47:03.044Z,19.67
2023-03-18T21:49:52.824Z,17.20
2023-03-18T21:52:42.565Z,19.13
2023-03-18T21:55:32.331Z,18.43
2023-03-18T21:58:24.826Z,18.13
2023-03-18T22:01:20.281Z,16.87
2023-03-18T22:04:09.700Z,16.60
2023-03-18T22:06:59.080Z,15.50
2023-03-18T22:09:48.520Z,16.83
2023-03-18T22:12:38.105Z,16.43
2023-03-18T22:15:40.088Z,15.90
2023-03-18T22:18:30.815Z,16.90
2023-03-18T22:21:24.878Z,17.73
2023-03-18T22:24:15.805Z,17.70
2023-03-18T22:27:05.409Z,16.47
2023-03-18T22:29:57.473Z,19.17
2023-03-18T22:32:48.525Z,18.07
2023-03-18T22:35:39.232Z,16.20
2023-03-18T22:38:28.689Z,15.83
2023-03-18T22:41:22.373Z,16.43
2023-03-18T22:44:21.436Z,17.83
2023-03-18T22:47:15.875Z,15.27
2023-03-18T22:50:05.755Z,19.40
2023-03-18T22:53:01.559Z,17.10
2023-03-18T22:55:52.759Z,17.07
2023-03-18T22:58:42.076Z,16.27
2023-03-18T23:01:32.754Z,16.73
2023-03-18T23:04:22.049Z,16.50
2023-03-18T23:07:26.584Z,17.33
2023-03-18T23:10:18.131Z,16.00
2023-03-18T23:13:16.976Z,18.70
2023-03-18T23:16:08.561Z,15.70
2023-03-18T23:18:57.851Z,18.00
2023-03-18T23:21:47.121Z,16.73
2023-03-18T23:24:36.401Z,15.93
2023-03-18T23:27:28.831Z,17.20
2023-03-18T23:30:18.411Z,17.93
2023-03-18T23:33:08.842Z,19.30
2023-03-18T23:35:58.165Z,16.67
2023-03-18T23:38:47.607Z,15.73
2023-03-18T23:41:36.941Z,18.70
2023-03-18T23:44:28.273Z,16.20
2023-03-18T23:47:18.072Z,16.23
2023-03-18T23:50:09.344Z,17.30
2023-03-18T23:52:59.102Z,15.17
2023-03-18T23:55:49.806Z,15.00
2023-03-18T23:58:39.428Z,14.83
